createdAt,value
2022-09-06T00:00:41.246Z,1.80
2022-09-06T00:03:43.438Z,1.67
2022-09-06T00:06:44.910Z,1.83
2022-09-06T00:09:46.453Z,1.13
2022-09-06T00:12:48.037Z,1.63
2022-09-06T00:15:49.645Z,1.15
2022-09-06T00:18:55.629Z,1.30
2022-09-06T00:21:57.198Z,1.60
2022-09-06T00:24:58.677Z,1.67
2022-09-06T00:28:03.713Z,1.23
2022-09-06T00:31:25.952Z,1.30
2022-09-06T00:34:28.094Z,1.20
2022-09-06T00:37:29.548Z,1.55
2022-09-06T00:40:35.073Z,1.50
2022-09-06T00:43:37.093Z,1.80
2022-09-06T00:46:44.665Z,1.30
2022-09-06T00:49:50.420Z,1.40
2022-09-06T00:52:53.377Z,1.42
2022-09-06T00:55:55.325Z,1.30
2022-09-06T00:58:57.336Z,1.10
2022-09-06T01:01:59.009Z,1.60
2022-09-06T01:05:02.219Z,1.65
2022-09-06T01:08:06.453Z,1.55
2022-09-06T01:11:47.998Z,1.70
2022-09-06T01:15:07.413Z,1.42
2022-09-06T01:18:41.710Z,1.35
2022-09-06T01:21:51.150Z,1.30
2022-09-06T01:24:55.501Z,1.80
2022-09-06T01:28:18.405Z,1.52
2022-09-06T01:31:19.891Z,2.08
2022-09-06T01:34:28.338Z,1.70
2022-09-06T01:37:32.949Z,1.20
2022-09-06T01:40:36.348Z,1.58
2022-09-06T01:43:41.190Z,1.45
2022-09-06T01:47:05.388Z,1.58
2022-09-06T01:50:35.039Z,1.75
2022-09-06T01:54:06.179Z,1.90
2022-09-06T01:57:19.919Z,1.40
2022-09-06T02:00:25.352Z,1.23
2022-09-06T02:03:37.652Z,1.55
2022-09-06T02:06:44.954Z,2.75
2022-09-06T02:09:53.647Z,1.58
2022-09-06T02:12:59.714Z,1.60
2022-09-06T02:16:06.963Z,1.77
2022-09-06T02:19:15.211Z,1.65
2022-09-06T02:22:21.534Z,1.30
2022-09-06T02:25:29.883Z,1.30
2022-09-06T02:28:31.692Z,1.33
2022-09-06T02:31:45.389Z,1.90
2022-09-06T02:37:49.532Z,2.38
2022-09-06T02:40:53.669Z,2.20
2022-09-06T02:43:55.126Z,2.50
2022-09-06T02:46:57.384Z,2.25
2022-09-06T02:49:59.123Z,2.00
2022-09-06T02:53:09.338Z,2.70
2022-09-06T02:56:11.169Z,2.10
2022-09-06T02:59:12.654Z,2.22
2022-09-06T03:02:14.338Z,2.50
2022-09-06T03:05:15.959Z,2.20
2022-09-06T03:08:18.930Z,2.28
2022-09-06T03:11:20.450Z,2.28
2022-09-06T03:14:21.942Z,2.17
2022-09-06T03:17:23.646Z,2.10
2022-09-06T03:20:25.926Z,2.03
2022-09-06T03:23:29.098Z,1.20
2022-09-06T03:26:30.572Z,2.38
2022-09-06T03:29:32.199Z,1.50
2022-09-06T03:32:33.883Z,1.88
2022-09-06T03:35:35.392Z,1.95
2022-09-06T03:38:36.890Z,1.83
2022-09-06T03:41:38.476Z,1.90
2022-09-06T03:44:39.959Z,1.65
2022-09-06T03:47:41.490Z,1.95
2022-09-06T03:50:50.568Z,1.92
2022-09-06T03:53:52.188Z,1.92
2022-09-06T03:56:53.941Z,1.60
2022-09-06T03:59:55.461Z,2.20
2022-09-06T04:03:01.448Z,2.20
2022-09-06T04:06:04.605Z,1.60
2022-09-06T04:09:06.082Z,2.17
2022-09-06T04:12:08.047Z,1.70
2022-09-06T04:15:09.884Z,1.95
2022-09-06T04:18:11.357Z,2.00
2022-09-06T04:21:12.832Z,1.60
2022-09-06T04:24:14.291Z,2.08
2022-09-06T04:27:15.814Z,1.40
2022-09-06T04:30:17.397Z,1.70
2022-09-06T04:33:18.869Z,1.63
2022-09-06T04:36:20.491Z,1.98
2022-09-06T04:39:21.943Z,2.10
2022-09-06T04:42:23.745Z,2.38
2022-09-06T04:45:25.348Z,1.67
2022-09-06T04:48:26.971Z,2.35
2022-09-06T04:51:31.561Z,2.00
2022-09-06T04:54:33.314Z,2.20
2022-09-06T04:57:34.892Z,2.03
2022-09-06T05:00:38.542Z,2.13
2022-09-06T05:03:40.186Z,2.03
2022-09-06T05:06:42.873Z,1.90
2022-09-06T05:09:44.388Z,1.85
2022-09-06T05:12:53.678Z,1.95
2022-09-06T05:15:55.554Z,1.88
2022-09-06T05:18:57.034Z,2.60
2022-09-06T05:21:58.557Z,2.50
2022-09-06T05:25:00.022Z,2.22
2022-09-06T05:28:01.747Z,2.63
2022-09-06T05:31:12.008Z,1.70
2022-09-06T05:34:15.035Z,2.25
2022-09-06T05:37:16.506Z,1.88
2022-09-06T05:40:18.175Z,2.03
2022-09-06T05:43:19.697Z,2.20
2022-09-06T05:46:21.550Z,3.00
2022-09-06T05:49:23.074Z,2.97
2022-09-06T05:52:24.595Z,2.10
2022-09-06T05:55:30.188Z,2.03
2022-09-06T05:58:32.188Z,1.98
2022-09-06T06:01:33.735Z,2.40
2022-09-06T06:04:35.302Z,2.47
2022-09-06T06:07:36.846Z,2.10
2022-09-06T06:10:39.465Z,2.30
2022-09-06T06:13:41.722Z,2.08
2022-09-06T06:16:43.239Z,2.13
2022-09-06T06:19:45.003Z,2.05
2022-09-06T06:22:46.510Z,2.05
2022-09-06T06:25:47.954Z,1.90
2022-09-06T06:28:49.820Z,2.22
2022-09-06T06:31:51.360Z,2.10
2022-09-06T06:34:52.889Z,1.95
2022-09-06T06:37:57.161Z,1.45
2022-09-06T06:41:04.441Z,1.92
2022-09-06T06:44:08.080Z,1.80
2022-09-06T06:47:09.694Z,2.53
2022-09-06T06:50:11.548Z,2.80
2022-09-06T06:53:13.075Z,2.40
2022-09-06T06:56:23.026Z,2.67
2022-09-06T06:59:24.622Z,2.42
2022-09-06T07:02:26.277Z,2.53
2022-09-06T07:08:49.346Z,2.22
2022-09-06T07:11:50.865Z,1.95
2022-09-06T07:14:52.355Z,2.30
2022-09-06T07:17:57.605Z,2.20
2022-09-06T07:24:20.638Z,2.20
2022-09-06T07:30:43.751Z,2.05
2022-09-06T07:33:45.225Z,1.80
2022-09-06T07:36:46.722Z,2.08
2022-09-06T07:39:48.322Z,1.70
2022-09-06T07:42:49.948Z,2.00
2022-09-06T07:55:26.071Z,1.42
2022-09-06T07:58:29.479Z,2.08
2022-09-06T08:04:36.195Z,2.00
2022-09-06T08:10:44.046Z,2.15
2022-09-06T08:13:49.679Z,1.73
2022-09-06T08:16:51.230Z,2.13
2022-09-06T08:19:52.711Z,1.98
2022-09-06T08:22:54.180Z,2.30
2022-09-06T08:25:57.499Z,1.95
2022-09-06T08:32:02.185Z,2.13
2022-09-06T08:35:04.271Z,1.90
2022-09-06T08:38:05.822Z,1.95
2022-09-06T08:41:09.317Z,2.13
2022-09-06T08:47:36.569Z,2.40
2022-09-06T08:50:43.287Z,2.38
2022-09-06T08:53:49.213Z,2.20
2022-09-06T08:57:40.395Z,2.20
2022-09-06T09:00:50.155Z,2.20
2022-09-06T09:03:56.517Z,2.13
2022-09-06T09:07:06.817Z,2.20
2022-09-06T09:10:21.849Z,2.28
2022-09-06T09:13:38.937Z,2.35
2022-09-06T09:16:44.650Z,2.28
2022-09-06T09:19:46.382Z,2.45
2022-09-06T09:22:48.604Z,1.83
2022-09-06T09:25:52.726Z,2.20
2022-09-06T09:29:12.951Z,2.05
2022-09-06T09:32:36.097Z,2.00
2022-09-06T09:35:42.125Z,2.00
2022-09-06T09:38:46.307Z,2.13
2022-09-06T09:41:50.825Z,1.80
2022-09-06T09:44:52.290Z,2.08
2022-09-06T09:47:54.149Z,2.38
2022-09-06T09:50:56.139Z,2.75
2022-09-06T09:54:04.325Z,2.30
2022-09-06T09:57:17.533Z,1.83
2022-09-06T10:00:42.951Z,2.20
2022-09-06T10:07:22.745Z,2.60
2022-09-06T10:10:31.998Z,2.25
2022-09-06T10:13:34.207Z,2.03
2022-09-06T10:16:44.743Z,2.15
2022-09-06T10:19:47.245Z,2.15
2022-09-06T10:23:05.008Z,2.33
2022-09-06T10:26:28.269Z,1.88
2022-09-06T10:29:45.046Z,2.40
2022-09-06T10:33:05.455Z,1.65
2022-09-06T10:36:07.627Z,2.15
2022-09-06T10:39:57.587Z,2.00
2022-09-06T10:43:01.320Z,2.42
2022-09-06T10:46:09.310Z,2.28
2022-09-06T10:49:17.184Z,1.92
2022-09-06T10:52:28.504Z,2.33
2022-09-06T10:55:32.162Z,2.20
2022-09-06T11:02:32.596Z,2.40
2022-09-06T11:05:43.996Z,1.67
2022-09-06T11:09:02.385Z,1.67
2022-09-06T11:12:16.705Z,1.70
2022-09-06T11:15:20.228Z,1.60
2022-09-06T11:18:46.564Z,1.60
2022-09-06T11:22:44.065Z,1.50
2022-09-06T11:26:13.859Z,1.45
2022-09-06T11:29:27.706Z,1.40
2022-09-06T11:32:50.795Z,1.55
2022-09-06T11:35:53.444Z,1.70
2022-09-06T11:38:58.243Z,1.65
2022-09-06T11:42:00.594Z,1.77
2022-09-06T11:45:01.994Z,1.70
2022-09-06T11:48:26.360Z,1.65
2022-09-06T11:51:35.854Z,1.80
2022-09-06T11:54:44.494Z,1.65
2022-09-06T11:57:47.365Z,1.73
2022-09-06T12:01:13.870Z,1.80
2022-09-06T12:04:15.495Z,1.77
2022-09-06T12:07:17.274Z,1.70
2022-09-06T12:10:30.691Z,1.45
2022-09-06T12:13:48.668Z,1.80
2022-09-06T12:16:59.328Z,1.75
2022-09-06T12:20:08.811Z,1.80
2022-09-06T12:23:36.242Z,1.70
2022-09-06T12:26:55.602Z,2.40
2022-09-06T12:30:05.132Z,1.63
2022-09-06T12:33:33.202Z,1.80
2022-09-06T12:36:34.711Z,1.40
2022-09-06T12:39:37.215Z,1.20
2022-09-06T12:42:39.000Z,1.88
2022-09-06T12:45:52.234Z,1.60
2022-09-06T12:49:08.733Z,1.38
2022-09-06T12:52:15.645Z,1.30
2022-09-06T12:55:28.178Z,1.35
2022-09-06T12:58:30.026Z,1.07
2022-09-06T13:01:37.061Z,1.20
2022-09-06T13:04:43.226Z,1.40
2022-09-06T13:07:52.249Z,1.65
2022-09-06T13:10:54.553Z,1.55
2022-09-06T13:13:56.406Z,1.23
2022-09-06T13:16:57.966Z,1.40
2022-09-06T13:20:11.050Z,1.27
2022-09-06T13:23:20.921Z,1.40
2022-09-06T13:26:39.363Z,1.40
2022-09-06T13:29:55.003Z,1.70
2022-09-06T13:32:56.668Z,1.30
2022-09-06T13:36:06.228Z,1.60
2022-09-06T13:39:07.710Z,1.40
2022-09-06T13:42:28.243Z,1.50
2022-09-06T13:45:31.730Z,1.40
2022-09-06T13:48:33.945Z,1.35
2022-09-06T13:51:38.670Z,1.63
2022-09-06T13:54:40.275Z,1.35
2022-09-06T13:57:41.713Z,1.67
2022-09-06T14:00:43.385Z,1.35
2022-09-06T14:03:44.889Z,0.93
2022-09-06T14:06:47.634Z,1.30
2022-09-06T14:09:50.175Z,1.40
2022-09-06T14:12:53.583Z,1.50
2022-09-06T14:15:55.357Z,2.10
2022-09-06T14:18:57.474Z,2.05
2022-09-06T14:21:59.123Z,1.98
2022-09-06T14:25:00.663Z,2.38
2022-09-06T14:28:05.254Z,2.15
2022-09-06T14:31:18.204Z,2.13
2022-09-06T14:34:19.836Z,2.20
2022-09-06T14:37:22.029Z,1.80
2022-09-06T14:40:24.084Z,2.05
2022-09-06T14:43:25.637Z,1.67
2022-09-06T14:46:28.326Z,1.73
2022-09-06T14:49:30.029Z,1.90
2022-09-06T14:52:31.529Z,1.50
2022-09-06T14:55:33.516Z,1.58
2022-09-06T14:58:37.349Z,1.45
2022-09-06T15:01:40.643Z,1.40
2022-09-06T15:04:42.485Z,1.65
2022-09-06T15:07:44.187Z,1.00
2022-09-06T15:10:54.093Z,1.45
2022-09-06T15:13:56.456Z,1.00
2022-09-06T15:16:59.917Z,1.63
2022-09-06T15:20:01.638Z,4.38
2022-09-06T15:26:25.688Z,2.90
2022-09-06T15:29:27.577Z,3.30
2022-09-06T15:32:29.346Z,2.05
2022-09-06T15:35:30.890Z,2.70
2022-09-06T15:38:36.885Z,1.90
2022-09-06T15:41:40.302Z,1.50
2022-09-06T15:44:41.895Z,1.85
2022-09-06T15:47:43.529Z,1.83
2022-09-06T15:50:51.610Z,1.83
2022-09-06T15:53:53.481Z,1.98
2022-09-06T15:56:57.975Z,1.75
2022-09-06T15:59:59.475Z,2.05
2022-09-06T16:03:01.457Z,1.75
2022-09-06T16:09:27.578Z,1.50
2022-09-06T16:12:29.173Z,1.30
2022-09-06T16:15:30.682Z,1.52
2022-09-06T16:18:36.720Z,0.95
2022-09-06T16:21:41.617Z,1.20
2022-09-06T16:24:43.106Z,1.20
2022-09-06T16:27:44.754Z,1.00
2022-09-06T16:30:46.383Z,1.30
2022-09-06T16:33:48.916Z,1.35
2022-09-06T16:36:50.644Z,0.70
2022-09-06T16:39:52.452Z,1.00
2022-09-06T16:42:57.258Z,1.73
2022-09-06T16:46:01.016Z,1.20
2022-09-06T16:49:04.312Z,1.25
2022-09-06T16:55:07.529Z,1.00
2022-09-06T16:58:09.063Z,1.40
2022-09-06T17:01:11.146Z,1.00
2022-09-06T17:04:13.254Z,0.80
2022-09-06T17:07:14.799Z,0.93
2022-09-06T17:10:16.355Z,1.10
2022-09-06T17:13:17.919Z,1.02
2022-09-06T17:16:39.336Z,0.98
2022-09-06T17:19:41.381Z,0.90
2022-09-06T17:22:42.981Z,1.00
2022-09-06T17:25:45.024Z,0.90
2022-09-06T17:28:47.760Z,1.10
2022-09-06T17:31:49.482Z,1.00
2022-09-06T17:34:51.117Z,0.90
2022-09-06T17:37:52.610Z,0.80
2022-09-06T17:41:00.786Z,0.82
2022-09-06T17:44:03.563Z,0.93
2022-09-06T17:47:14.818Z,1.13
2022-09-06T17:50:17.461Z,0.90
2022-09-06T17:53:19.499Z,1.33
2022-09-06T17:56:24.445Z,1.55
2022-09-06T17:59:26.031Z,1.70
2022-09-06T18:02:27.833Z,1.40
2022-09-06T18:05:29.369Z,1.20
2022-09-06T18:08:30.996Z,1.08
2022-09-06T18:11:33.599Z,1.60
2022-09-06T18:14:35.306Z,0.93
2022-09-06T18:17:36.895Z,1.02
2022-09-06T18:20:38.434Z,1.00
2022-09-06T18:23:39.990Z,1.08
2022-09-06T18:26:42.945Z,0.88
2022-09-06T18:29:44.672Z,0.95
2022-09-06T18:32:46.389Z,0.82
2022-09-06T18:35:50.060Z,0.93
2022-09-06T18:38:51.910Z,0.98
2022-09-06T18:42:07.003Z,0.93
2022-09-06T18:45:09.112Z,0.70
2022-09-06T18:48:10.993Z,1.00
2022-09-06T18:51:14.864Z,1.10
2022-09-06T18:54:16.856Z,1.50
2022-09-06T18:57:18.494Z,1.00
2022-09-06T19:00:21.372Z,0.93
2022-09-06T19:03:23.176Z,1.08
2022-09-06T19:06:27.163Z,1.25
2022-09-06T19:09:28.718Z,0.70
2022-09-06T19:12:30.310Z,1.10
2022-09-06T19:15:31.821Z,1.10
2022-09-06T19:18:34.835Z,1.10
2022-09-06T19:21:41.424Z,2.28
2022-09-06T19:24:44.278Z,23.25
2022-09-06T19:27:48.826Z,32.67
2022-09-06T19:30:50.725Z,9.57
2022-09-06T19:33:53.695Z,4.43
2022-09-06T19:36:55.425Z,2.50
2022-09-06T19:39:57.427Z,2.15
2022-09-06T19:42:58.998Z,1.85
2022-09-06T19:46:05.537Z,1.65
2022-09-06T19:49:08.260Z,1.50
2022-09-06T19:52:10.451Z,1.25
2022-09-06T19:55:12.035Z,1.30
2022-09-06T19:58:13.551Z,1.25
2022-09-06T20:01:17.984Z,1.23
2022-09-06T20:04:20.920Z,1.17
2022-09-06T20:07:22.717Z,1.40
2022-09-06T20:10:25.647Z,1.25
2022-09-06T20:13:27.858Z,1.10
2022-09-06T20:16:30.549Z,1.20
2022-09-06T20:19:32.606Z,1.33
2022-09-06T20:22:34.268Z,1.35
2022-09-06T20:25:36.940Z,1.33
2022-09-06T20:28:38.625Z,1.40
2022-09-06T20:31:40.279Z,1.30
2022-09-06T20:34:43.014Z,1.10
2022-09-06T20:37:46.076Z,1.20
2022-09-06T20:40:47.666Z,1.23
2022-09-06T20:43:55.521Z,1.20
2022-09-06T20:46:57.286Z,1.50
2022-09-06T20:49:58.903Z,1.45
2022-09-06T20:53:01.872Z,1.67
2022-09-06T20:56:05.783Z,1.13
2022-09-06T20:59:12.523Z,1.25
2022-09-06T21:02:14.180Z,1.20
2022-09-06T21:05:16.354Z,1.20
2022-09-06T21:08:18.152Z,1.40
2022-09-06T21:11:19.926Z,1.40
2022-09-06T21:14:22.713Z,1.13
2022-09-06T21:17:24.418Z,1.20
2022-09-06T21:20:26.226Z,1.30
2022-09-06T21:23:29.636Z,1.45
2022-09-06T21:26:31.696Z,1.88
2022-09-06T21:29:33.200Z,1.40
2022-09-06T21:32:35.398Z,1.40
2022-09-06T21:35:36.922Z,1.27
2022-09-06T21:38:40.799Z,1.30
2022-09-06T21:41:46.428Z,1.20
2022-09-06T21:44:47.978Z,1.40
2022-09-06T21:47:50.127Z,1.13
2022-09-06T21:50:52.251Z,1.02
2022-09-06T21:53:54.388Z,1.20
2022-09-06T21:56:56.023Z,0.90
2022-09-06T21:59:57.738Z,0.80
2022-09-06T22:02:59.296Z,1.10
2022-09-06T22:06:18.911Z,1.20
2022-09-06T22:09:20.733Z,1.00
2022-09-06T22:12:25.886Z,0.98
2022-09-06T22:15:27.437Z,0.90
2022-09-06T22:18:29.030Z,1.40
2022-09-06T22:21:33.177Z,1.20
2022-09-06T22:24:34.667Z,1.10
2022-09-06T22:27:36.374Z,1.23
2022-09-06T22:30:37.927Z,1.20
2022-09-06T22:33:39.640Z,1.55
2022-09-06T22:36:41.206Z,1.00
2022-09-06T22:39:50.740Z,1.20
2022-09-06T22:42:53.017Z,1.02
2022-09-06T22:45:54.722Z,1.05
2022-09-06T22:48:56.250Z,1.30
2022-09-06T22:51:57.866Z,1.20
2022-09-06T22:54:59.415Z,1.00
2022-09-06T22:58:01.039Z,1.17
2022-09-06T23:01:14.516Z,1.42
2022-09-06T23:07:17.888Z,1.00
2022-09-06T23:10:19.516Z,1.10
2022-09-06T23:13:20.987Z,0.90
2022-09-06T23:16:22.655Z,0.80
2022-09-06T23:19:24.782Z,1.10
2022-09-06T23:22:26.661Z,0.82
2022-09-06T23:25:28.218Z,0.93
2022-09-06T23:28:30.011Z,0.80
2022-09-06T23:31:32.466Z,1.05
2022-09-06T23:34:34.749Z,0.80
2022-09-06T23:37:36.669Z,0.85
2022-09-06T23:40:38.142Z,0.93
2022-09-06T23:43:41.540Z,0.90
2022-09-06T23:49:45.310Z,0.80
2022-09-06T23:52:47.037Z,0.90
2022-09-06T23:55:48.689Z,0.93
2022-09-06T23:58:50.255Z,0.90
